Latest Coastal Weather Observations for Stenhouse Bay

IDS60701

Issued at 12:31 pm CST Saturday 20 July 2024 (issued every 10 minutes, with the page automatically refreshed every 10 minutes)

About coastal observations | Map of coastal stations | Coastal observations for SA | Marine services | Other Formats
Station Details ID: 022049 Name: STENHOUSE BAY Lat: -35.28 Lon: 136.94 Height: 42.0 m
Data from the previous 72 hours. | See also: Recent months at Stenhouse Bay
Date/Time
CST
Wind Sea
Height
m
Swell Vis
km
Cloud Weather Temp
°C
Press
MSL
hPa
Rain since
9am
mm
Dir  Spd
kts
Gust
kts
Height
m
Period
s
Dir
20/12:00pm WSW 16 24 - - - - - - - 15.5 1016.1 0.0
20/11:33am WSW 15 27 - - - - - - - 14.3 1016.3 0.0
20/11:30am WSW 13 24 - - - - - - - 15.6 1016.3 0.0
20/11:00am WSW 14 21 - - - - - - - 14.3 1016.2 0.0
20/10:30am WSW 17 23 - - - - - - - 15.2 1015.9 0.0
20/10:00am WSW 18 25 - - - - - - - 14.9 1015.6 0.0
20/09:30am WSW 19 27 - - - - - - - 14.3 1015.0 0.0
20/09:00am WSW 18 27 - - - - - - - 13.5 1014.5 4.2
20/08:30am WSW 22 33 - - - - - - - 12.9 1013.9 4.2
20/08:07am WSW 18 28 - - - - - - - 12.5 1013.5 4.2
20/08:00am WSW 18 25 - - - - - - - 12.6 1013.3 4.2
20/07:30am WSW 21 32 - - - - - - - 10.9 1013.0 4.2
20/07:00am WSW 25 37 - - - - - - - 12.2 1012.3 4.0
20/06:34am WSW 24 35 - - - - - - - 12.7 1011.5 4.0
20/06:30am WSW 23 32 - - - - - - - 12.4 1011.4 4.0
20/06:00am WSW 25 36 - - - - - - - 12.5 1010.8 4.0
20/05:30am WSW 29 39 - - - - - - - 12.6 1010.2 4.0
20/05:00am WSW 28 41 - - - - - - - 11.5 1009.8 4.0
20/04:30am WSW 26 39 - - - - - - - 12.4 1009.3 3.8
20/04:00am WSW 31 42 - - - - - - - 12.7 1008.9 3.8
20/03:30am WSW 30 42 - - - - - - - 12.3 1008.4 3.8
20/03:00am WSW 26 44 - - - - - - - 11.2 1008.3 3.8
20/02:57am WSW 26 50 - - - - - - - 10.5 1008.3 3.8
20/02:52am WSW 30 50 - - - - - - - 9.7 1008.4 3.8
20/02:49am WSW 32 50 - - - - - - - 10.7 1008.2 3.8
20/02:30am WSW 28 39 - - - - - - - 9.8 1007.8 3.8
20/02:18am WSW 27 49 - - - - - - - 10.5 1007.9 3.8
20/02:01am WSW 25 46 - - - - - - - 9.9 1007.6 3.8
20/02:00am WSW 26 46 - - - - - - - 10.0 1007.5 3.8
20/01:58am WSW 29 46 - - - - - - - 10.0 1007.5 3.8
20/01:48am WSW 34 48 - - - - - - - 11.4 1007.1 3.4
20/01:30am WSW 27 39 - - - - - - - 10.9 1007.1 3.4
20/01:28am WSW 28 39 - - - - - - - 10.8 1007.1 3.4
20/01:27am WSW 28 44 - - - - - - - 10.8 1007.1 3.4
20/01:00am WSW 31 47 - - - - - - - 11.7 1006.3 3.4
20/12:30am WSW 26 40 - - - - - - - 10.8 1006.1 3.4
20/12:00am W 24 38 - - - - - - - 10.4 1005.9 3.2
 
Date/Time
CST
Wind Sea
Height
m
Swell Vis
km
Cloud Weather Temp
°C
Press
MSL
hPa
Rain since
9am
mm
Dir  Spd
kts
Gust
kts
Height
m
Period
s
Dir
19/11:30pm WSW 28 40 - - - - - - - 11.2 1005.4 3.2
19/11:00pm WSW 28 39 - - - - - - - 11.4 1004.8 3.2
19/10:30pm WSW 30 46 - - - - - - - 10.6 1004.0 3.2
19/10:00pm WSW 26 40 - - - - - - - 10.2 1003.6 3.2
19/09:30pm WSW 26 40 - - - - - - - 10.1 1002.7 3.2
19/09:22pm WSW 35 53 - - - - - - - 9.8 1002.7 3.2
19/09:17pm WSW 32 53 - - - - - - - 9.6 1002.4 3.2
19/09:14pm WSW 29 47 - - - - - - - 11.4 1002.2 3.2
19/09:00pm W 26 36 - - - - - - Recent precip. 11.5 1001.6 3.2
19/08:30pm WSW 28 42 - - - - - - - 12.0 1001.0 3.2
19/08:14pm WSW 30 49 - - - - - - - 11.5 1000.6 3.0
19/08:09pm WSW 26 49 - - - - - - - 11.2 1000.3 3.0
19/08:08pm WSW 25 49 - - - - - - - 11.4 1000.3 3.0
19/08:03pm WSW 22 33 - - - - - - - 11.4 1000.3 3.0
19/08:00pm WSW 23 33 - - - - - - - 11.3 1000.4 3.0
19/07:45pm W 21 39 - - - - - - - 11.8 999.6 3.0
19/07:38pm WNW 19 32 - - - - - - - 11.6 999.5 3.0
19/07:30pm WNW 19 28 - - - - - - - 11.4 999.4 3.0
19/07:00pm WNW 23 36 - - - - - - - 10.4 999.6 2.8
19/06:32pm WNW 20 31 - - - - - - - 11.6 999.4 1.6
19/06:30pm WNW 19 27 - - - - - - - 12.0 999.4 1.4
19/06:00pm W 19 29 - - - - - - Thunderstorm 11.3 998.9 1.4
19/05:30pm W 27 40 - - - - - - - 10.0 999.4 1.4
19/05:29pm W 28 40 - - - - - - - 10.0 999.4 1.4
19/05:19pm WNW 18 43 - - - - - - - 11.4 999.7 1.2
19/05:18pm WNW 17 41 - - - - - - - 13.4 999.7 0.8
19/05:00pm W 18 26 - - - - - - - 13.4 998.6 0.4
19/04:46pm W 20 31 - - - - - - - 13.2 998.5 0.4
19/04:30pm WNW 20 30 - - - - - - - 13.2 998.2 0.4
19/04:17pm WNW 19 29 - - - - - - - 12.6 998.0 0.4
19/04:00pm NW 19 28 - - - - - - - 12.1 997.8 0.4
19/03:42pm NW 21 33 - - - - - - - 12.3 997.9 0.4
19/03:30pm NW 21 28 - - - - - - - 13.1 998.0 0.2
19/03:09pm NW 22 33 - - - - - - - 13.1 997.5 0.2
19/03:00pm NW 25 34 - - - - - - - 13.4 997.5 0.2
19/02:30pm NW 29 42 - - - - - - - 12.8 997.6 0.2
19/02:00pm NNW 30 44 - - - - - - - 14.3 997.5 0.2
19/01:30pm NNW 26 37 - - - - - - - 14.0 997.9 0.2
19/01:00pm NNW 25 37 - - - - - - - 14.3 998.2 0.2
19/12:30pm NNW 23 33 - - - - - - - 14.0 999.3 0.2
19/12:11pm N 20 36 - - - - - - - 13.5 1000.1 0.2
19/12:00pm N 21 30 - - - - - - - 13.4 1000.6 0.2
19/11:30am N 21 32 - - - - - - - 13.1 1001.4 0.2
19/11:06am N 19 30 - - - - - - - 12.5 1001.8 0.2
19/11:00am N 20 29 - - - - - - - 12.3 1002.2 0.2
19/10:47am NNW 20 31 - - - - - - - 12.6 1003.2 0.0
19/10:30am NNW 20 29 - - - - - - - 12.5 1003.7 0.0
19/10:00am NNW 21 29 - - - - - - - 13.4 1004.0 0.0
19/09:42am NNW 19 29 - - - - - - - 14.4 1004.0 0.0
19/09:30am NNW 18 25 - - - - - - - 14.4 1004.1 0.0
19/09:00am NNW 17 25 - - - - - - - 14.5 1004.0 0.0
19/08:30am NNW 17 24 - - - - - - - 14.0 1004.5 0.0
19/08:00am NNW 17 24 - - - - - - - 13.8 1005.1 0.0
19/07:30am NNW 18 25 - - - - - - - 13.9 1005.7 0.0
19/07:00am NNW 17 23 - - - - - - - 13.9 1006.2 0.0
19/06:30am NNW 16 25 - - - - - - - 13.9 1006.4 0.0
19/06:01am NNW 18 28 - - - - - - - 13.8 1006.3 0.0
19/06:00am NNW 18 26 - - - - - - - 13.8 1006.3 0.0
19/05:30am NNW 19 27 - - - - - - - 13.9 1006.2 0.0
19/05:00am NNW 18 23 - - - - - - - 13.9 1006.5 0.0
19/04:30am NNW 20 27 - - - - - - - 13.9 1006.5 0.0
19/04:01am NNW 20 30 - - - - - - - 13.9 1007.4 0.0
19/04:00am NNW 20 30 - - - - - - - 13.9 1007.4 0.0
19/03:47am NNW 19 30 - - - - - - - 13.7 1007.6 0.0
19/03:30am NNW 19 26 - - - - - - - 13.6 1008.0 0.0
19/03:00am NNW 17 25 - - - - - - - 13.5 1008.0 0.0
19/02:30am NNW 18 24 - - - - - - - 13.4 1009.1 0.0
19/02:00am NNW 16 23 - - - - - - - 13.1 1009.3 0.0
19/01:30am NNW 20 27 - - - - - - - 13.1 1010.2 0.0
19/01:00am NNW 18 25 - - - - - - - 13.1 1011.4 0.0
19/12:30am NNW 17 23 - - - - - - - 12.9 1012.4 0.0
19/12:00am NNW 18 23 - - - - - - - 12.8 1012.7 0.0
 
Date/Time
CST
Wind Sea
Height
m
Swell Vis
km
Cloud Weather Temp
°C
Press
MSL
hPa
Rain since
9am
mm
Dir  Spd
kts
Gust
kts
Height
m
Period
s
Dir
18/11:30pm NNW 17 24 - - - - - - - 12.7 1012.5 0.0
18/11:00pm NNW 15 23 - - - - - - - 12.4 1013.0 0.0
18/10:30pm NNW 18 25 - - - - - - - 12.6 1012.8 0.0
18/10:00pm N 14 19 - - - - - - - 12.2 1012.5 0.0
18/09:30pm NNW 13 19 - - - - - - - 11.9 1013.7 0.0
18/09:00pm NNW 12 17 - - - - - - - 12.0 1014.4 0.0
18/08:30pm NNW 13 18 - - - - - - - 12.0 1015.2 0.0
18/08:00pm N 9 13 - - - - - - - 11.8 1014.9 0.0
18/07:30pm NNW 12 17 - - - - - - - 12.1 1016.1 0.0
18/07:00pm NNW 11 15 - - - - - - - 11.7 1016.1 0.0
18/06:30pm N 12 15 - - - - - - - 11.6 1015.5 0.0
18/06:00pm N 11 16 - - - - - - - 11.5 1016.1 0.0
18/05:30pm N 9 14 - - - - - - - 11.3 1015.8 0.0
18/05:00pm NNW 10 15 - - - - - - - 11.4 1016.1 0.0
18/04:30pm NNW 12 18 - - - - - - - 11.7 1016.8 0.0
18/04:00pm NNW 12 19 - - - - - - - 12.3 1017.1 0.0
18/03:30pm NNW 13 20 - - - - - - - 12.3 1017.0 0.0
18/03:00pm NNW 14 20 - - - - - - - 13.4 1017.1 0.0
18/02:30pm NNW 13 18 - - - - - - - 12.4 1016.9 0.0
18/02:00pm NW 14 19 - - - - - - - 13.0 1017.7 0.0
18/01:30pm NW 12 17 - - - - - - - 12.6 1017.2 0.0
18/01:00pm NW 12 16 - - - - - - - 12.3 1018.4 0.0
18/12:30pm NW 11 16 - - - - - - - 12.8 1019.2 0.0
18/12:00pm NW 11 16 - - - - - - - 13.1 1019.6 0.0
18/11:30am NW 9 13 - - - - - - - 13.3 1020.3 0.0
18/11:00am NW 11 15 - - - - - - - 12.7 1021.2 0.0
18/10:30am NW 9 13 - - - - - - - 13.4 1021.6 0.0
18/10:00am NW 4 8 - - - - - - - 12.7 1021.5 0.0
18/09:30am NNW 5 7 - - - - - - - 12.1 1021.6 0.0
18/09:00am NNW 5 7 - - - - - - - 10.6 1021.2 0.0
18/08:30am NNW 4 5 - - - - - - - 9.7 1021.2 0.0
18/08:00am NNW 4 5 - - - - - - - 8.4 1021.0 0.0
18/07:30am NNW 3 6 - - - - - - - 8.7 1021.2 0.0
18/07:00am NW 2 3 - - - - - - - 9.6 1021.4 0.0
18/06:30am WNW 3 3 - - - - - - - 10.1 1021.3 0.0
18/06:00am SW 2 3 - - - - - - - 10.4 1021.6 0.0
18/05:30am SW 4 7 - - - - - - - 11.0 1021.4 0.0
18/05:00am SW 7 11 - - - - - - - 11.1 1021.5 0.0
18/04:30am W 6 7 - - - - - - - 10.6 1021.5 0.0
18/04:00am WSW 4 6 - - - - - - - 11.5 1021.8 0.0
18/03:30am SSW 5 8 - - - - - - - 11.7 1021.8 0.0
18/03:00am S 7 10 - - - - - - - 11.6 1022.1 0.0
18/02:30am SSE 9 11 - - - - - - - 11.4 1022.1 0.0
18/02:00am S 8 9 - - - - - - - 11.5 1022.2 0.0
18/01:30am SSE 9 11 - - - - - - - 11.2 1022.0 0.0
18/01:00am S 9 12 - - - - - - - 11.3 1022.2 0.0
18/12:30am S 8 13 - - - - - - - 11.3 1022.1 0.0
18/12:00am S 11 15 - - - - - - - 11.3 1022.3 0.0
 
Date/Time
CST
Wind Sea
Height
m
Swell Vis
km
Cloud Weather Temp
°C
Press
MSL
hPa
Rain since
9am
mm
Dir  Spd
kts
Gust
kts
Height
m
Period
s
Dir
17/11:30pm SSW 10 14 - - - - - - - 11.7 1022.4 0.0
17/11:00pm S 12 15 - - - - - - - 11.6 1022.6 0.0
17/10:30pm S 13 17 - - - - - - - 11.5 1022.5 0.0
17/10:00pm SSE 12 15 - - - - - - - 11.7 1022.7 0.0
17/09:30pm SSE 15 21 - - - - - - - 11.9 1022.4 0.0
17/09:00pm S 15 19 - - - - - - - 11.7 1022.6 0.0
17/08:30pm SSW 15 19 - - - - - - - 11.9 1022.8 0.0
17/08:00pm SSW 14 19 - - - - - - - 12.2 1022.5 0.0
17/07:30pm SSW 14 20 - - - - - - - 12.1 1022.3 0.0
17/07:00pm SSW 13 19 - - - - - - - 11.8 1022.0 0.0
17/06:30pm S 18 23 - - - - - - - 12.0 1021.7 0.0
17/06:00pm SSW 15 21 - - - - - - - 12.3 1021.5 0.0
17/05:30pm SSW 16 21 - - - - - - - 12.2 1020.9 0.0
17/05:00pm SSW 13 19 - - - - - - - 12.5 1020.6 0.0
17/04:30pm SSW 15 20 - - - - - - - 12.4 1020.3 0.0
17/04:00pm S 16 21 - - - - - - - 12.8 1019.9 0.0
17/03:30pm S 18 22 - - - - - - - 13.1 1019.3 0.0
17/03:00pm S 16 21 - - - - - - - 13.5 1019.3 0.0
17/02:30pm S 20 25 - - - - - - - 13.4 1019.2 0.0
17/02:00pm S 18 24 - - - - - - - 12.8 1019.3 0.0
17/01:30pm S 19 25 - - - - - - - 12.8 1019.5 0.0
17/01:00pm S 17 23 - - - - - - - 13.1 1019.6 0.0

Other formats

Comma delimited format used in spreadsheet applications
http://www.bom.gov.au/fwo/IDS60701/IDS60701.95806.axf

JavaScript Object Notation format (JSON) in row-major order
http://www.bom.gov.au/fwo/IDS60701/IDS60701.95806.json

Data quality

Most of these data are generated automatically and are frequently updated. Quality checks on data are not normally performed. It is possible for incorrect values to appear. Refer to information at About Latest Weather Observations and please check the disclaimer before using these data.